sensor_id;sensor_type;location;lat;lon;timestamp;P1;durP1;ratioP1;P2;durP2;ratioP2
69226;SDS011;56334;52.398;7.552;2024-01-25T05:15:25;22.80;;;3.38;;
69226;SDS011;56334;52.398;7.552;2024-01-25T05:17:51;19.75;;;2.95;;
69226;SDS011;56334;52.398;7.552;2024-01-25T05:20:18;21.17;;;3.63;;
69226;SDS011;56334;52.398;7.552;2024-01-25T05:22:44;18.92;;;3.40;;
69226;SDS011;56334;52.398;7.552;2024-01-25T05:25:11;22.20;;;3.22;;
69226;SDS011;56334;52.398;7.552;2024-01-25T05:27:37;25.63;;;3.40;;
69226;SDS011;56334;52.398;7.552;2024-01-25T05:30:03;24.30;;;3.55;;
69226;SDS011;56334;52.398;7.552;2024-01-25T05:32:29;19.45;;;3.15;;
69226;SDS011;56334;52.398;7.552;2024-01-25T05:34:55;34.08;;;4.55;;
69226;SDS011;56334;52.398;7.552;2024-01-25T05:37:21;18.67;;;3.28;;
69226;SDS011;56334;52.398;7.552;2024-01-25T05:39:47;17.42;;;2.53;;
69226;SDS011;56334;52.398;7.552;2024-01-25T05:42:13;24.10;;;3.95;;
69226;SDS011;56334;52.398;7.552;2024-01-25T05:44:39;23.10;;;3.75;;
69226;SDS011;56334;52.398;7.552;2024-01-25T05:47:05;24.85;;;3.72;;
69226;SDS011;56334;52.398;7.552;2024-01-25T05:49:32;19.73;;;3.22;;
69226;SDS011;56334;52.398;7.552;2024-01-25T05:51:58;21.17;;;3.70;;
69226;SDS011;56334;52.398;7.552;2024-01-25T05:54:24;19.73;;;3.63;;
69226;SDS011;56334;52.398;7.552;2024-01-25T05:56:50;26.40;;;3.30;;
69226;SDS011;56334;52.398;7.552;2024-01-25T05:59:16;22.63;;;3.50;;
69226;SDS011;56334;52.398;7.552;2024-01-25T06:01:42;17.45;;;3.20;;
69226;SDS011;56334;52.398;7.552;2024-01-25T06:04:08;24.92;;;4.22;;
69226;SDS011;56334;52.398;7.552;2024-01-25T06:06:34;22.75;;;3.75;;
69226;SDS011;56334;52.398;7.552;2024-01-25T06:09:00;26.92;;;4.57;;
69226;SDS011;56334;52.398;7.552;2024-01-25T06:11:26;25.13;;;3.83;;
69226;SDS011;56334;52.398;7.552;2024-01-25T06:13:52;29.15;;;4.15;;
69226;SDS011;56334;52.398;7.552;2024-01-25T06:16:18;19.70;;;3.83;;
69226;SDS011;56334;52.398;7.552;2024-01-25T06:18:44;21.77;;;3.63;;
69226;SDS011;56334;52.398;7.552;2024-01-25T06:21:17;27.63;;;4.25;;
69226;SDS011;56334;52.398;7.552;2024-01-25T06:23:43;21.98;;;3.50;;
69226;SDS011;56334;52.398;7.552;2024-01-25T06:26:09;24.13;;;3.72;;
69226;SDS011;56334;52.398;7.552;2024-01-25T06:28:35;17.70;;;3.47;;
69226;SDS011;56334;52.398;7.552;2024-01-25T06:31:01;20.85;;;3.65;;
69226;SDS011;56334;52.398;7.552;2024-01-25T06:33:27;25.38;;;3.47;;
69226;SDS011;56334;52.398;7.552;2024-01-25T06:35:54;18.73;;;4.10;;
69226;SDS011;56334;52.398;7.552;2024-01-25T06:38:20;20.25;;;3.42;;
69226;SDS011;56334;52.398;7.552;2024-01-25T06:40:46;33.70;;;4.55;;
69226;SDS011;56334;52.398;7.552;2024-01-25T06:43:12;20.20;;;3.67;;
69226;SDS011;56334;52.398;7.552;2024-01-25T06:45:38;18.00;;;3.75;;
69226;SDS011;56334;52.398;7.552;2024-01-25T06:48:05;20.67;;;3.28;;
69226;SDS011;56334;52.398;7.552;2024-01-25T06:50:31;23.20;;;3.70;;
69226;SDS011;56334;52.398;7.552;2024-01-25T06:52:58;20.83;;;3.05;;
69226;SDS011;56334;52.398;7.552;2024-01-25T06:55:24;28.00;;;3.25;;
69226;SDS011;56334;52.398;7.552;2024-01-25T06:57:50;19.25;;;3.42;;
69226;SDS011;56334;52.398;7.552;2024-01-25T07:00:16;20.98;;;3.47;;
69226;SDS011;56334;52.398;7.552;2024-01-25T07:02:43;21.73;;;3.28;;
69226;SDS011;56334;52.398;7.552;2024-01-25T07:05:09;19.15;;;3.30;;
69226;SDS011;56334;52.398;7.552;2024-01-25T07:07:35;28.05;;;3.58;;
69226;SDS011;56334;52.398;7.552;2024-01-25T07:10:03;17.83;;;3.22;;
69226;SDS011;56334;52.398;7.552;2024-01-25T07:12:29;20.08;;;3.55;;
69226;SDS011;56334;52.398;7.552;2024-01-25T07:14:55;27.15;;;3.85;;
69226;SDS011;56334;52.398;7.552;2024-01-25T07:17:21;21.10;;;3.00;;
69226;SDS011;56334;52.398;7.552;2024-01-25T07:19:47;23.17;;;3.75;;
69226;SDS011;56334;52.398;7.552;2024-01-25T07:22:13;26.35;;;3.10;;
69226;SDS011;56334;52.398;7.552;2024-01-25T07:24:40;28.27;;;3.92;;
69226;SDS011;56334;52.398;7.552;2024-01-25T07:27:06;19.60;;;3.40;;
69226;SDS011;56334;52.398;7.552;2024-01-25T07:29:32;20.88;;;2.95;;
69226;SDS011;56334;52.398;7.552;2024-01-25T07:31:58;21.83;;;3.53;;
69226;SDS011;56334;52.398;7.552;2024-01-25T07:34:24;23.70;;;3.80;;
69226;SDS011;56334;52.398;7.552;2024-01-25T07:36:50;27.10;;;3.90;;
69226;SDS011;56334;52.398;7.552;2024-01-25T07:39:16;21.55;;;3.28;;
69226;SDS011;56334;52.398;7.552;2024-01-25T07:41:42;26.02;;;3.63;;
69226;SDS011;56334;52.398;7.552;2024-01-25T07:44:08;22.80;;;3.97;;
69226;SDS011;56334;52.398;7.552;2024-01-25T07:46:34;24.10;;;4.57;;
69226;SDS011;56334;52.398;7.552;2024-01-25T07:49:00;23.50;;;3.75;;
69226;SDS011;56334;52.398;7.552;2024-01-25T07:51:26;32.22;;;4.10;;
69226;SDS011;56334;52.398;7.552;2024-01-25T07:53:53;21.88;;;4.25;;
69226;SDS011;56334;52.398;7.552;2024-01-25T07:56:19;19.75;;;3.33;;
69226;SDS011;56334;52.398;7.552;2024-01-25T07:58:47;24.77;;;3.40;;
69226;SDS011;56334;52.398;7.552;2024-01-25T08:01:13;24.63;;;3.88;;
69226;SDS011;56334;52.398;7.552;2024-01-25T08:03:43;26.45;;;4.75;;
69226;SDS011;56334;52.398;7.552;2024-01-25T08:06:09;22.33;;;3.67;;
69226;SDS011;56334;52.398;7.552;2024-01-25T08:08:36;28.42;;;4.10;;
69226;SDS011;56334;52.398;7.552;2024-01-25T08:11:02;21.23;;;4.15;;
69226;SDS011;56334;52.398;7.552;2024-01-25T08:13:29;23.48;;;3.50;;
69226;SDS011;56334;52.398;7.552;2024-01-25T08:15:55;31.05;;;4.20;;
69226;SDS011;56334;52.398;7.552;2024-01-25T08:18:21;30.05;;;4.20;;
69226;SDS011;56334;52.398;7.552;2024-01-25T08:20:54;21.48;;;3.40;;
69226;SDS011;56334;52.398;7.552;2024-01-25T08:23:20;21.83;;;3.50;;
69226;SDS011;56334;52.398;7.552;2024-01-25T08:25:46;24.45;;;4.47;;
69226;SDS011;56334;52.398;7.552;2024-01-25T08:28:13;20.60;;;3.85;;
69226;SDS011;56334;52.398;7.552;2024-01-25T08:30:39;24.50;;;4.15;;
69226;SDS011;56334;52.398;7.552;2024-01-25T08:33:05;23.00;;;4.22;;
69226;SDS011;56334;52.398;7.552;2024-01-25T08:35:31;17.92;;;4.07;;
69226;SDS011;56334;52.398;7.552;2024-01-25T08:37:57;19.17;;;3.70;;
69226;SDS011;56334;52.398;7.552;2024-01-25T08:40:23;26.38;;;4.28;;
69226;SDS011;56334;52.398;7.552;2024-01-25T08:42:49;17.45;;;3.15;;
69226;SDS011;56334;52.398;7.552;2024-01-25T08:45:15;18.13;;;3.03;;
69226;SDS011;56334;52.398;7.552;2024-01-25T08:47:41;30.08;;;4.72;;
69226;SDS011;56334;52.398;7.552;2024-01-25T08:50:07;26.27;;;4.07;;
69226;SDS011;56334;52.398;7.552;2024-01-25T08:52:36;20.63;;;3.80;;
69226;SDS011;56334;52.398;7.552;2024-01-25T08:55:03;24.85;;;4.63;;
69226;SDS011;56334;52.398;7.552;2024-01-25T08:57:30;27.52;;;4.05;;
69226;SDS011;56334;52.398;7.552;2024-01-25T08:59:56;20.63;;;3.15;;
69226;SDS011;56334;52.398;7.552;2024-01-25T09:02:23;20.15;;;3.90;;
69226;SDS011;56334;52.398;7.552;2024-01-25T09:04:51;25.50;;;4.32;;
69226;SDS011;56334;52.398;7.552;2024-01-25T09:07:18;23.15;;;4.03;;
69226;SDS011;56334;52.398;7.552;2024-01-25T09:09:45;28.30;;;4.65;;
69226;SDS011;56334;52.398;7.552;2024-01-25T09:12:11;20.58;;;3.80;;
69226;SDS011;56334;52.398;7.552;2024-01-25T09:14:37;25.83;;;4.68;;
69226;SDS011;56334;52.398;7.552;2024-01-25T09:17:04;25.85;;;4.63;;
69226;SDS011;56334;52.398;7.552;2024-01-25T09:19:33;31.20;;;4.70;;
69226;SDS011;56334;52.398;7.552;2024-01-25T09:21:59;28.38;;;4.90;;
69226;SDS011;56334;52.398;7.552;2024-01-25T09:24:30;24.63;;;4.57;;
69226;SDS011;56334;52.398;7.552;2024-01-25T09:26:58;28.50;;;4.72;;
69226;SDS011;56334;52.398;7.552;2024-01-25T09:29:24;23.33;;;4.13;;
69226;SDS011;56334;52.398;7.552;2024-01-25T09:31:50;26.77;;;4.38;;
69226;SDS011;56334;52.398;7.552;2024-01-25T09:34:16;23.98;;;4.45;;
69226;SDS011;56334;52.398;7.552;2024-01-25T09:36:42;19.38;;;3.92;;
69226;SDS011;56334;52.398;7.552;2024-01-25T09:39:08;24.52;;;4.57;;
69226;SDS011;56334;52.398;7.552;2024-01-25T09:41:34;24.83;;;4.65;;
69226;SDS011;56334;52.398;7.552;2024-01-25T09:44:00;22.15;;;3.58;;
69226;SDS011;56334;52.398;7.552;2024-01-25T09:46:26;28.70;;;5.85;;
69226;SDS011;56334;52.398;7.552;2024-01-25T09:48:53;22.02;;;4.18;;
69226;SDS011;56334;52.398;7.552;2024-01-25T09:51:19;24.88;;;4.15;;
69226;SDS011;56334;52.398;7.552;2024-01-25T09:53:46;29.83;;;5.20;;
69226;SDS011;56334;52.398;7.552;2024-01-25T09:56:15;27.38;;;4.75;;
69226;SDS011;56334;52.398;7.552;2024-01-25T10:01:12;21.48;;;3.90;;
69226;SDS011;56334;52.398;7.552;2024-01-25T10:03:39;27.90;;;4.90;;
69226;SDS011;56334;52.398;7.552;2024-01-25T10:06:05;23.85;;;5.53;;
69226;SDS011;56334;52.398;7.552;2024-01-25T10:08:32;27.90;;;4.50;;
69226;SDS011;56334;52.398;7.552;2024-01-25T10:10:58;25.77;;;4.45;;
69226;SDS011;56334;52.398;7.552;2024-01-25T10:13:25;25.80;;;4.43;;
69226;SDS011;56334;52.398;7.552;2024-01-25T10:15:52;25.85;;;4.43;;
69226;SDS011;56334;52.398;7.552;2024-01-25T10:18:19;18.38;;;4.18;;
69226;SDS011;56334;52.398;7.552;2024-01-25T10:20:45;27.13;;;4.28;;
69226;SDS011;56334;52.398;7.552;2024-01-25T10:23:11;21.45;;;3.97;;
69226;SDS011;56334;52.398;7.552;2024-01-25T10:25:38;29.17;;;4.70;;
69226;SDS011;56334;52.398;7.552;2024-01-25T10:28:07;24.65;;;5.10;;
69226;SDS011;56334;52.398;7.552;2024-01-25T10:30:34;30.63;;;4.75;;
69226;SDS011;56334;52.398;7.552;2024-01-25T10:33:00;25.70;;;5.07;;
69226;SDS011;56334;52.398;7.552;2024-01-25T10:35:26;27.80;;;4.50;;
69226;SDS011;56334;52.398;7.552;2024-01-25T10:37:53;31.15;;;4.25;;
69226;SDS011;56334;52.398;7.552;2024-01-25T10:40:19;21.95;;;4.13;;
69226;SDS011;56334;52.398;7.552;2024-01-25T10:42:45;30.60;;;4.28;;
69226;SDS011;56334;52.398;7.552;2024-01-25T10:45:12;30.08;;;4.80;;
69226;SDS011;56334;52.398;7.552;2024-01-25T10:47:38;26.23;;;4.85;;
69226;SDS011;56334;52.398;7.552;2024-01-25T10:50:11;31.20;;;5.50;;
69226;SDS011;56334;52.398;7.552;2024-01-25T10:52:39;25.90;;;5.43;;
69226;SDS011;56334;52.398;7.552;2024-01-25T10:55:05;30.73;;;7.55;;
69226;SDS011;56334;52.398;7.552;2024-01-25T10:57:36;31.88;;;10.27;;
69226;SDS011;56334;52.398;7.552;2024-01-25T11:00:02;35.75;;;9.95;;
69226;SDS011;56334;52.398;7.552;2024-01-25T11:02:32;36.88;;;11.95;;
69226;SDS011;56334;52.398;7.552;2024-01-25T11:05:00;37.63;;;11.20;;
69226;SDS011;56334;52.398;7.552;2024-01-25T11:07:27;29.45;;;7.95;;
69226;SDS011;56334;52.398;7.552;2024-01-25T11:09:53;34.42;;;8.57;;
69226;SDS011;56334;52.398;7.552;2024-01-25T11:12:19;22.10;;;5.78;;
69226;SDS011;56334;52.398;7.552;2024-01-25T11:14:45;24.23;;;4.28;;
69226;SDS011;56334;52.398;7.552;2024-01-25T11:17:19;22.10;;;5.07;;
69226;SDS011;56334;52.398;7.552;2024-01-25T11:19:46;29.75;;;5.97;;
69226;SDS011;56334;52.398;7.552;2024-01-25T11:22:14;30.15;;;4.47;;
69226;SDS011;56334;52.398;7.552;2024-01-25T11:24:40;24.63;;;4.25;;
69226;SDS011;56334;52.398;7.552;2024-01-25T11:29:33;25.92;;;4.88;;
69226;SDS011;56334;52.398;7.552;2024-01-25T11:31:59;26.95;;;5.60;;
69226;SDS011;56334;52.398;7.552;2024-01-25T11:34:25;24.10;;;4.63;;
69226;SDS011;56334;52.398;7.552;2024-01-25T11:36:51;29.02;;;5.70;;
69226;SDS011;56334;52.398;7.552;2024-01-25T11:39:17;16.08;;;4.22;;
69226;SDS011;56334;52.398;7.552;2024-01-25T11:41:44;26.42;;;5.10;;
69226;SDS011;56334;52.398;7.552;2024-01-25T11:44:10;25.75;;;4.50;;
69226;SDS011;56334;52.398;7.552;2024-01-25T11:46:36;19.25;;;4.05;;
69226;SDS011;56334;52.398;7.552;2024-01-25T11:49:03;23.17;;;4.10;;
69226;SDS011;56334;52.398;7.552;2024-01-25T11:51:29;20.55;;;4.82;;
69226;SDS011;56334;52.398;7.552;2024-01-25T11:53:55;21.77;;;4.05;;
69226;SDS011;56334;52.398;7.552;2024-01-25T11:56:25;28.38;;;4.95;;
69226;SDS011;56334;52.398;7.552;2024-01-25T11:58:52;19.35;;;3.97;;
69226;SDS011;56334;52.398;7.552;2024-01-25T12:01:21;21.05;;;4.22;;
69226;SDS011;56334;52.398;7.552;2024-01-25T12:03:47;26.25;;;4.40;;
69226;SDS011;56334;52.398;7.552;2024-01-25T12:06:13;23.67;;;4.22;;
69226;SDS011;56334;52.398;7.552;2024-01-25T12:08:40;21.73;;;4.05;;
69226;SDS011;56334;52.398;7.552;2024-01-25T12:11:07;20.45;;;4.93;;
69226;SDS011;56334;52.398;7.552;2024-01-25T12:13:42;25.00;;;4.63;;
69226;SDS011;56334;52.398;7.552;2024-01-25T12:16:09;23.00;;;4.53;;
69226;SDS011;56334;52.398;7.552;2024-01-25T12:18:35;22.35;;;4.07;;
69226;SDS011;56334;52.398;7.552;2024-01-25T12:21:05;22.52;;;4.40;;
69226;SDS011;56334;52.398;7.552;2024-01-25T12:25:59;24.48;;;4.45;;
69226;SDS011;56334;52.398;7.552;2024-01-25T12:30:52;20.27;;;4.55;;
69226;SDS011;56334;52.398;7.552;2024-01-25T12:33:18;25.10;;;5.05;;
69226;SDS011;56334;52.398;7.552;2024-01-25T12:35:44;22.80;;;3.63;;
69226;SDS011;56334;52.398;7.552;2024-01-25T12:38:10;30.98;;;5.18;;
69226;SDS011;56334;52.398;7.552;2024-01-25T12:40:36;22.42;;;4.97;;
69226;SDS011;56334;52.398;7.552;2024-01-25T12:43:02;24.88;;;4.43;;
69226;SDS011;56334;52.398;7.552;2024-01-25T12:45:28;28.73;;;4.63;;
69226;SDS011;56334;52.398;7.552;2024-01-25T12:47:54;22.10;;;5.13;;
69226;SDS011;56334;52.398;7.552;2024-01-25T12:50:20;21.67;;;4.05;;
69226;SDS011;56334;52.398;7.552;2024-01-25T12:52:46;24.77;;;4.75;;
69226;SDS011;56334;52.398;7.552;2024-01-25T12:55:12;22.00;;;4.15;;
69226;SDS011;56334;52.398;7.552;2024-01-25T12:57:44;22.60;;;4.25;;
69226;SDS011;56334;52.398;7.552;2024-01-25T13:00:11;27.92;;;5.15;;
69226;SDS011;56334;52.398;7.552;2024-01-25T13:02:37;20.20;;;4.43;;
69226;SDS011;56334;52.398;7.552;2024-01-25T13:05:03;19.70;;;3.90;;
69226;SDS011;56334;52.398;7.552;2024-01-25T13:07:29;23.55;;;3.97;;
69226;SDS011;56334;52.398;7.552;2024-01-25T13:09:55;18.17;;;3.53;;
69226;SDS011;56334;52.398;7.552;2024-01-25T13:12:21;16.42;;;3.42;;
69226;SDS011;56334;52.398;7.552;2024-01-25T13:14:47;22.65;;;4.07;;
69226;SDS011;56334;52.398;7.552;2024-01-25T13:17:13;19.67;;;3.83;;
69226;SDS011;56334;52.398;7.552;2024-01-25T13:19:39;19.90;;;3.92;;
69226;SDS011;56334;52.398;7.552;2024-01-25T13:22:05;21.33;;;4.03;;
69226;SDS011;56334;52.398;7.552;2024-01-25T13:24:31;20.88;;;4.18;;
69226;SDS011;56334;52.398;7.552;2024-01-25T13:26:57;21.90;;;3.88;;
69226;SDS011;56334;52.398;7.552;2024-01-25T13:29:23;21.77;;;3.65;;
69226;SDS011;56334;52.398;7.552;2024-01-25T13:31:49;20.30;;;3.58;;
69226;SDS011;56334;52.398;7.552;2024-01-25T13:34:15;30.88;;;3.58;;
69226;SDS011;56334;52.398;7.552;2024-01-25T13:36:41;26.25;;;3.80;;
69226;SDS011;56334;52.398;7.552;2024-01-25T13:39:07;23.05;;;4.05;;
69226;SDS011;56334;52.398;7.552;2024-01-25T13:41:34;21.67;;;3.53;;
69226;SDS011;56334;52.398;7.552;2024-01-25T13:44:00;19.98;;;4.05;;
69226;SDS011;56334;52.398;7.552;2024-01-25T13:46:26;22.02;;;4.50;;
69226;SDS011;56334;52.398;7.552;2024-01-25T13:48:52;20.55;;;3.83;;
69226;SDS011;56334;52.398;7.552;2024-01-25T13:51:18;23.05;;;4.43;;
69226;SDS011;56334;52.398;7.552;2024-01-25T13:53:44;27.45;;;4.07;;
69226;SDS011;56334;52.398;7.552;2024-01-25T13:56:10;20.15;;;3.63;;
69226;SDS011;56334;52.398;7.552;2024-01-25T13:58:36;20.73;;;4.40;;
69226;SDS011;56334;52.398;7.552;2024-01-25T14:01:02;19.05;;;4.03;;
69226;SDS011;56334;52.398;7.552;2024-01-25T14:03:30;22.85;;;4.28;;
69226;SDS011;56334;52.398;7.552;2024-01-25T14:05:56;24.13;;;5.35;;
69226;SDS011;56334;52.398;7.552;2024-01-25T14:08:22;24.00;;;4.35;;
69226;SDS011;56334;52.398;7.552;2024-01-25T14:10:48;25.92;;;4.50;;
69226;SDS011;56334;52.398;7.552;2024-01-25T14:13:14;28.15;;;5.35;;
69226;SDS011;56334;52.398;7.552;2024-01-25T14:15:40;23.70;;;5.25;;
69226;SDS011;56334;52.398;7.552;2024-01-25T14:18:06;20.25;;;3.83;;
69226;SDS011;56334;52.398;7.552;2024-01-25T14:20:32;25.42;;;4.97;;
69226;SDS011;56334;52.398;7.552;2024-01-25T14:22:59;23.35;;;4.45;;
69226;SDS011;56334;52.398;7.552;2024-01-25T14:25:25;21.65;;;5.00;;
69226;SDS011;56334;52.398;7.552;2024-01-25T14:27:51;24.02;;;5.57;;
69226;SDS011;56334;52.398;7.552;2024-01-25T14:30:17;21.73;;;4.88;;
69226;SDS011;56334;52.398;7.552;2024-01-25T14:32:43;20.10;;;3.83;;
69226;SDS011;56334;52.398;7.552;2024-01-25T14:35:09;30.20;;;6.05;;
69226;SDS011;56334;52.398;7.552;2024-01-25T14:37:35;31.50;;;5.78;;
69226;SDS011;56334;52.398;7.552;2024-01-25T14:40:01;26.85;;;7.10;;
69226;SDS011;56334;52.398;7.552;2024-01-25T14:42:28;22.60;;;5.07;;
69226;SDS011;56334;52.398;7.552;2024-01-25T14:44:54;27.10;;;5.78;;
69226;SDS011;56334;52.398;7.552;2024-01-25T14:47:20;18.15;;;3.85;;
69226;SDS011;56334;52.398;7.552;2024-01-25T14:52:13;22.38;;;4.30;;
69226;SDS011;56334;52.398;7.552;2024-01-25T14:54:40;23.50;;;4.85;;
69226;SDS011;56334;52.398;7.552;2024-01-25T14:57:06;20.67;;;5.30;;
69226;SDS011;56334;52.398;7.552;2024-01-25T14:59:32;23.38;;;5.60;;
69226;SDS011;56334;52.398;7.552;2024-01-25T15:01:57;19.98;;;3.90;;
69226;SDS011;56334;52.398;7.552;2024-01-25T15:04:23;21.25;;;4.20;;
69226;SDS011;56334;52.398;7.552;2024-01-25T15:06:54;20.33;;;5.45;;
69226;SDS011;56334;52.398;7.552;2024-01-25T15:09:20;23.92;;;6.63;;
69226;SDS011;56334;52.398;7.552;2024-01-25T15:11:46;24.27;;;5.75;;
69226;SDS011;56334;52.398;7.552;2024-01-25T15:14:13;23.83;;;5.82;;
69226;SDS011;56334;52.398;7.552;2024-01-25T15:16:39;21.70;;;5.35;;
69226;SDS011;56334;52.398;7.552;2024-01-25T15:19:05;22.42;;;4.40;;
69226;SDS011;56334;52.398;7.552;2024-01-25T15:21:31;21.40;;;4.20;;
69226;SDS011;56334;52.398;7.552;2024-01-25T15:23:57;25.73;;;4.13;;
69226;SDS011;56334;52.398;7.552;2024-01-25T15:26:23;20.45;;;3.65;;
69226;SDS011;56334;52.398;7.552;2024-01-25T15:28:50;25.75;;;4.45;;
69226;SDS011;56334;52.398;7.552;2024-01-25T15:31:17;25.15;;;4.40;;
69226;SDS011;56334;52.398;7.552;2024-01-25T15:33:43;20.08;;;3.70;;
69226;SDS011;56334;52.398;7.552;2024-01-25T15:36:10;23.00;;;4.57;;
69226;SDS011;56334;52.398;7.552;2024-01-25T15:38:36;25.13;;;4.43;;
69226;SDS011;56334;52.398;7.552;2024-01-25T15:41:02;22.60;;;4.97;;
69226;SDS011;56334;52.398;7.552;2024-01-25T15:43:28;21.35;;;3.92;;
69226;SDS011;56334;52.398;7.552;2024-01-25T15:45:54;22.38;;;3.90;;
69226;SDS011;56334;52.398;7.552;2024-01-25T15:48:20;23.10;;;4.82;;
69226;SDS011;56334;52.398;7.552;2024-01-25T15:50:46;27.50;;;5.63;;
69226;SDS011;56334;52.398;7.552;2024-01-25T15:53:12;28.25;;;4.38;;
69226;SDS011;56334;52.398;7.552;2024-01-25T15:55:40;23.80;;;5.65;;
69226;SDS011;56334;52.398;7.552;2024-01-25T15:58:06;20.25;;;4.65;;
69226;SDS011;56334;52.398;7.552;2024-01-25T16:00:32;21.27;;;4.90;;
69226;SDS011;56334;52.398;7.552;2024-01-25T16:05:25;29.42;;;7.50;;
69226;SDS011;56334;52.398;7.552;2024-01-25T16:07:51;34.72;;;12.02;;
69226;SDS011;56334;52.398;7.552;2024-01-25T16:10:19;34.97;;;11.77;;
69226;SDS011;56334;52.398;7.552;2024-01-25T16:12:45;25.77;;;7.28;;
69226;SDS011;56334;52.398;7.552;2024-01-25T16:15:11;26.13;;;6.28;;
69226;SDS011;56334;52.398;7.552;2024-01-25T16:17:37;26.30;;;5.28;;
69226;SDS011;56334;52.398;7.552;2024-01-25T16:20:03;28.92;;;6.10;;
69226;SDS011;56334;52.398;7.552;2024-01-25T16:22:29;20.00;;;5.80;;
69226;SDS011;56334;52.398;7.552;2024-01-25T16:24:55;22.00;;;7.20;;
69226;SDS011;56334;52.398;7.552;2024-01-25T16:27:21;26.90;;;6.22;;
69226;SDS011;56334;52.398;7.552;2024-01-25T16:29:47;27.55;;;5.68;;
69226;SDS011;56334;52.398;7.552;2024-01-25T16:32:13;27.02;;;5.93;;
69226;SDS011;56334;52.398;7.552;2024-01-25T16:34:39;26.13;;;5.03;;
69226;SDS011;56334;52.398;7.552;2024-01-25T16:37:05;28.52;;;6.78;;
69226;SDS011;56334;52.398;7.552;2024-01-25T16:39:31;23.90;;;5.57;;
69226;SDS011;56334;52.398;7.552;2024-01-25T16:41:58;28.25;;;6.70;;
69226;SDS011;56334;52.398;7.552;2024-01-25T16:44:24;29.23;;;6.55;;
69226;SDS011;56334;52.398;7.552;2024-01-25T16:46:50;24.65;;;5.75;;
69226;SDS011;56334;52.398;7.552;2024-01-25T16:49:15;25.10;;;4.70;;
69226;SDS011;56334;52.398;7.552;2024-01-25T16:51:41;24.77;;;5.72;;
69226;SDS011;56334;52.398;7.552;2024-01-25T16:54:07;25.35;;;7.32;;
69226;SDS011;56334;52.398;7.552;2024-01-25T16:56:33;25.40;;;7.00;;
69226;SDS011;56334;52.398;7.552;2024-01-25T16:58:59;23.20;;;7.20;;
69226;SDS011;56334;52.398;7.552;2024-01-25T17:01:25;28.15;;;6.82;;
69226;SDS011;56334;52.398;7.552;2024-01-25T17:03:51;22.58;;;6.07;;
69226;SDS011;56334;52.398;7.552;2024-01-25T17:06:17;28.73;;;6.43;;
69226;SDS011;56334;52.398;7.552;2024-01-25T17:08:43;24.67;;;6.82;;
69226;SDS011;56334;52.398;7.552;2024-01-25T17:11:09;23.92;;;7.78;;
69226;SDS011;56334;52.398;7.552;2024-01-25T17:13:36;34.65;;;11.85;;
69226;SDS011;56334;52.398;7.552;2024-01-25T17:16:02;28.55;;;7.15;;
69226;SDS011;56334;52.398;7.552;2024-01-25T17:18:29;24.70;;;6.45;;
69226;SDS011;56334;52.398;7.552;2024-01-25T17:20:55;29.35;;;6.30;;
69226;SDS011;56334;52.398;7.552;2024-01-25T17:23:22;35.05;;;7.68;;
69226;SDS011;56334;52.398;7.552;2024-01-25T17:25:48;33.25;;;8.70;;
69226;SDS011;56334;52.398;7.552;2024-01-25T17:28:14;27.40;;;6.60;;
69226;SDS011;56334;52.398;7.552;2024-01-25T17:30:40;28.08;;;7.40;;
69226;SDS011;56334;52.398;7.552;2024-01-25T17:33:06;29.10;;;6.63;;
69226;SDS011;56334;52.398;7.552;2024-01-25T17:35:32;22.58;;;5.82;;
69226;SDS011;56334;52.398;7.552;2024-01-25T17:37:58;26.27;;;5.70;;
69226;SDS011;56334;52.398;7.552;2024-01-25T17:40:24;32.90;;;6.25;;
69226;SDS011;56334;52.398;7.552;2024-01-25T17:42:50;26.95;;;5.72;;
69226;SDS011;56334;52.398;7.552;2024-01-25T17:45:16;26.13;;;7.00;;
69226;SDS011;56334;52.398;7.552;2024-01-25T17:47:42;32.40;;;7.95;;
69226;SDS011;56334;52.398;7.552;2024-01-25T17:50:08;29.40;;;6.40;;
69226;SDS011;56334;52.398;7.552;2024-01-25T17:52:34;29.08;;;7.13;;
69226;SDS011;56334;52.398;7.552;2024-01-25T17:55:01;34.15;;;7.72;;
69226;SDS011;56334;52.398;7.552;2024-01-25T17:57:29;33.53;;;9.20;;
69226;SDS011;56334;52.398;7.552;2024-01-25T18:02:21;34.70;;;8.00;;
69226;SDS011;56334;52.398;7.552;2024-01-25T18:04:47;33.75;;;8.93;;
69226;SDS011;56334;52.398;7.552;2024-01-25T18:07:13;46.58;;;13.15;;
69226;SDS011;56334;52.398;7.552;2024-01-25T18:09:39;48.60;;;13.52;;
69226;SDS011;56334;52.398;7.552;2024-01-25T18:12:05;38.17;;;8.88;;
69226;SDS011;56334;52.398;7.552;2024-01-25T18:14:31;31.05;;;8.63;;
69226;SDS011;56334;52.398;7.552;2024-01-25T18:16:57;34.35;;;8.65;;
69226;SDS011;56334;52.398;7.552;2024-01-25T18:19:23;29.67;;;7.38;;
69226;SDS011;56334;52.398;7.552;2024-01-25T18:21:51;31.40;;;7.47;;
69226;SDS011;56334;52.398;7.552;2024-01-25T18:24:17;38.08;;;7.95;;
69226;SDS011;56334;52.398;7.552;2024-01-25T18:26:43;32.80;;;7.18;;
69226;SDS011;56334;52.398;7.552;2024-01-25T18:29:09;25.98;;;7.53;;
69226;SDS011;56334;52.398;7.552;2024-01-25T18:31:35;30.30;;;7.63;;
69226;SDS011;56334;52.398;7.552;2024-01-25T18:34:01;33.58;;;8.10;;
69226;SDS011;56334;52.398;7.552;2024-01-25T18:36:27;35.20;;;8.10;;
69226;SDS011;56334;52.398;7.552;2024-01-25T18:38:53;30.85;;;7.25;;
69226;SDS011;56334;52.398;7.552;2024-01-25T18:41:19;32.85;;;8.20;;
69226;SDS011;56334;52.398;7.552;2024-01-25T18:43:45;29.38;;;7.63;;
69226;SDS011;56334;52.398;7.552;2024-01-25T18:46:11;31.30;;;8.40;;
69226;SDS011;56334;52.398;7.552;2024-01-25T18:48:37;28.55;;;7.55;;
69226;SDS011;56334;52.398;7.552;2024-01-25T18:51:03;33.63;;;7.30;;
69226;SDS011;56334;52.398;7.552;2024-01-25T18:53:31;33.70;;;8.20;;
69226;SDS011;56334;52.398;7.552;2024-01-25T18:55:58;34.70;;;7.80;;
69226;SDS011;56334;52.398;7.552;2024-01-25T18:58:24;38.20;;;9.55;;
69226;SDS011;56334;52.398;7.552;2024-01-25T19:00:51;38.50;;;10.43;;
69226;SDS011;56334;52.398;7.552;2024-01-25T19:03:17;34.63;;;9.13;;
69226;SDS011;56334;52.398;7.552;2024-01-25T19:05:44;32.15;;;7.97;;
